Gresham, OR (97080)

4:36 PM PST on February 14, 2016 (GMT -0800)
Hogan and Roberts | | Change Station
CLOSE
Current Station
Personal Weather Station
Location: Gresham, OR
Elevation: 384 ft
Nearby Weather Stations

Elev 384 ft 45.49 °N, 122.42 °W | Updated 41 seconds ago

Overcast
Overcast
54.7 °F
Feels Like 54.7 °F
N
4.0
Wind Variable Wind from WSW
Gusts 8.1 mph

Today
High -- | Low -- °F
--% Chance of Precip.
Yesterday
High -- | Low -- °F
Precip. -- in
Pressure 30.25 in
Visibility 10.0 miles
Clouds Scattered Clouds 1700 ft
Mostly Cloudy 3400 ft
Overcast 4200 ft
Dew Point 50 °F
Humidity 83%
Rainfall 0.00 in
Snow Depth Not available.
7:13 AM 5:34 PM
Waxing Crescent, 47% visible
METAR KTTD 142353Z 22011KT 10SM SCT017 BKN034 OVC042 14/11 A3025 RMK AO2 RAB27E42 SLP244 P0000 60001 T01390106 10139 20122 53002
Pressure 30.25 in
Visibility 10.0 miles
Clouds Scattered Clouds 1700 ft
Mostly Cloudy 3400 ft
Overcast 4200 ft
Dew Point 50 °F
Humidity 83%
Rainfall 0.00 in
Snow Depth Not available.
7:13 AM 5:34 PM
Waxing Crescent, 47% visible
METAR KTTD 142353Z 22011KT 10SM SCT017 BKN034 OVC042 14/11 A3025 RMK AO2 RAB27E42 SLP244 P0000 60001 T01390106 10139 20122 53002

10-Day Weather Forecast

Almanac

Astronomy

Feb. 14, 2016 Rise Set
Actual Time
Civil Twilight
Nautical Twilight
Astronomical Twilight
Moon
Length of Visible Light
Length of Day
Tomorrow will be .
, % of the Moon is Illuminated

Today's Extremes

State Highs State Lows

Community

WunderPhotos

Upload Photos

1,892,950 photos uploaded!

WunderBlog® & News

Nearby

Air Quality

  Air Quality AQ Index Pollutant
Not available.

Snow Depth

Station Depth Elevation

Earthquake Activity

City Distance Mag. Time & Date
Minimum magnitude displayed is 2.5.

Coastal Water Temperatures

Place Temperature

Stations

Nearby Weather Stations

Station Location Temp. Windchill Dew Point Humidity Wind Precip. Elev Updated Type
                   

Watches & Warnings

There are currently no watches in effect.